sensor_id;sensor_type;location;lat;lon;timestamp;pressure;altitude;pressure_sealevel;temperature;humidity
45357;BME280;31092;51.924;21.448;2022-11-15T00:00:33;100785.13;;;5.85;100.00
45357;BME280;31092;51.924;21.448;2022-11-15T00:02:59;100683.56;;;5.28;100.00
45357;BME280;31092;51.924;21.448;2022-11-15T00:05:25;100768.84;;;5.76;100.00
45357;BME280;31092;51.924;21.448;2022-11-15T00:07:53;100699.84;;;5.37;100.00
45357;BME280;31092;51.924;21.448;2022-11-15T00:10:19;100715.91;;;5.48;100.00
45357;BME280;31092;51.924;21.448;2022-11-15T00:12:44;100726.81;;;5.56;100.00
45357;BME280;31092;51.924;21.448;2022-11-15T00:15:09;100690.97;;;5.36;100.00
45357;BME280;31092;51.924;21.448;2022-11-15T00:17:35;100739.78;;;5.72;100.00
45357;BME280;31092;51.924;21.448;2022-11-15T00:20:00;100651.16;;;5.22;100.00
45357;BME280;31092;51.924;21.448;2022-11-15T00:22:34;100670.22;;;5.28;100.00
45357;BME280;31092;51.924;21.448;2022-11-15T00:24:59;100650.91;;;5.25;100.00
45357;BME280;31092;51.924;21.448;2022-11-15T00:27:25;100650.06;;;5.24;100.00
45357;BME280;31092;51.924;21.448;2022-11-15T00:29:50;100633.91;;;5.15;100.00
45357;BME280;31092;51.924;21.448;2022-11-15T00:32:16;100724.50;;;5.74;100.00
45357;BME280;31092;51.924;21.448;2022-11-15T00:34:41;100622.63;;;5.11;100.00
45357;BME280;31092;51.924;21.448;2022-11-15T00:37:07;100735.91;;;5.76;100.00
45357;BME280;31092;51.924;21.448;2022-11-15T00:39:32;100726.09;;;5.76;100.00
45357;BME280;31092;51.924;21.448;2022-11-15T00:41:57;100723.50;;;5.75;100.00
45357;BME280;31092;51.924;21.448;2022-11-15T00:44:23;100625.81;;;5.16;100.00
45357;BME280;31092;51.924;21.448;2022-11-15T00:46:48;100687.59;;;5.45;100.00
45357;BME280;31092;51.924;21.448;2022-11-15T00:49:14;100716.72;;;5.71;100.00
45357;BME280;31092;51.924;21.448;2022-11-15T00:51:39;100686.34;;;5.61;100.00
45357;BME280;31092;51.924;21.448;2022-11-15T00:54:05;100693.91;;;5.67;100.00
45357;BME280;31092;51.924;21.448;2022-11-15T00:56:30;100616.44;;;5.22;100.00
45357;BME280;31092;51.924;21.448;2022-11-15T00:58:56;100669.13;;;5.53;100.00
45357;BME280;31092;51.924;21.448;2022-11-15T01:01:21;100588.91;;;4.99;100.00
45357;BME280;31092;51.924;21.448;2022-11-15T01:03:47;100663.78;;;5.42;100.00
45357;BME280;31092;51.924;21.448;2022-11-15T01:06:12;100598.13;;;5.06;100.00
45357;BME280;31092;51.924;21.448;2022-11-15T01:08:39;100664.53;;;5.44;100.00
45357;BME280;31092;51.924;21.448;2022-11-15T01:11:08;100670.81;;;5.55;100.00
45357;BME280;31092;51.924;21.448;2022-11-15T01:13:35;100605.75;;;5.22;100.00
45357;BME280;31092;51.924;21.448;2022-11-15T01:16:14;100579.91;;;5.11;100.00
45357;BME280;31092;51.924;21.448;2022-11-15T01:18:41;100669.94;;;5.65;100.00
45357;BME280;31092;51.924;21.448;2022-11-15T01:21:09;100578.09;;;5.12;100.00
45357;BME280;31092;51.924;21.448;2022-11-15T01:23:35;100670.81;;;5.66;100.00
45357;BME280;31092;51.924;21.448;2022-11-15T01:26:02;100648.47;;;5.56;100.00
45357;BME280;31092;51.924;21.448;2022-11-15T01:28:33;100627.22;;;5.43;100.00
45357;BME280;31092;51.924;21.448;2022-11-15T01:31:01;100637.53;;;5.47;100.00
45357;BME280;31092;51.924;21.448;2022-11-15T01:33:27;100551.53;;;4.99;100.00
45357;BME280;31092;51.924;21.448;2022-11-15T01:35:53;100534.56;;;4.89;100.00
45357;BME280;31092;51.924;21.448;2022-11-15T01:38:18;100549.56;;;5.01;100.00
45357;BME280;31092;51.924;21.448;2022-11-15T01:40:44;100618.50;;;5.41;100.00
45357;BME280;31092;51.924;21.448;2022-11-15T01:43:38;100641.31;;;5.56;100.00
45357;BME280;31092;51.924;21.448;2022-11-15T01:46:13;100560.50;;;5.09;100.00
45357;BME280;31092;51.924;21.448;2022-11-15T01:48:43;100610.00;;;5.36;100.00
45357;BME280;31092;51.924;21.448;2022-11-15T01:51:11;100552.00;;;5.04;100.00
45357;BME280;31092;51.924;21.448;2022-11-15T01:53:40;100626.25;;;5.44;100.00
45357;BME280;31092;51.924;21.448;2022-11-15T01:56:11;100610.84;;;5.36;100.00
45357;BME280;31092;51.924;21.448;2022-11-15T01:58:40;100609.91;;;5.37;100.00
45357;BME280;31092;51.924;21.448;2022-11-15T02:01:06;100623.25;;;5.37;100.00
45357;BME280;31092;51.924;21.448;2022-11-15T02:03:43;100623.25;;;5.37;100.00
45357;BME280;31092;51.924;21.448;2022-11-15T02:06:09;100567.16;;;5.15;100.00
45357;BME280;31092;51.924;21.448;2022-11-15T02:08:35;100563.88;;;5.11;100.00
45357;BME280;31092;51.924;21.448;2022-11-15T02:11:00;100492.34;;;4.71;100.00
45357;BME280;31092;51.924;21.448;2022-11-15T02:13:26;100501.94;;;4.74;100.00
45357;BME280;31092;51.924;21.448;2022-11-15T02:16:02;100592.78;;;5.28;100.00
45357;BME280;31092;51.924;21.448;2022-11-15T02:18:37;100513.06;;;4.79;100.00
45357;BME280;31092;51.924;21.448;2022-11-15T02:21:17;100523.88;;;4.89;100.00
45357;BME280;31092;51.924;21.448;2022-11-15T02:32:54;100563.78;;;5.13;100.00
45357;BME280;31092;51.924;21.448;2022-11-15T02:43:21;100564.50;;;5.15;100.00
45357;BME280;31092;51.924;21.448;2022-11-15T02:46:14;100495.63;;;4.75;100.00
45357;BME280;31092;51.924;21.448;2022-11-15T02:48:44;100576.28;;;5.23;100.00
45357;BME280;31092;51.924;21.448;2022-11-15T02:51:11;100473.78;;;4.59;100.00
45357;BME280;31092;51.924;21.448;2022-11-15T02:53:38;100579.78;;;5.24;100.00
45357;BME280;31092;51.924;21.448;2022-11-15T02:56:03;100551.91;;;5.06;100.00
45357;BME280;31092;51.924;21.448;2022-11-15T03:06:28;100576.38;;;5.22;100.00
45357;BME280;31092;51.924;21.448;2022-11-15T03:09:05;100571.28;;;5.19;100.00
45357;BME280;31092;51.924;21.448;2022-11-15T03:11:41;100493.78;;;4.75;100.00
45357;BME280;31092;51.924;21.448;2022-11-15T03:14:47;100471.25;;;4.57;100.00
45357;BME280;31092;51.924;21.448;2022-11-15T03:17:25;100533.78;;;4.98;100.00
45357;BME280;31092;51.924;21.448;2022-11-15T03:19:54;100455.13;;;4.47;100.00
45357;BME280;31092;51.924;21.448;2022-11-15T03:22:23;100522.06;;;4.89;100.00
45357;BME280;31092;51.924;21.448;2022-11-15T03:24:55;100511.63;;;4.86;100.00
45357;BME280;31092;51.924;21.448;2022-11-15T03:27:25;100538.28;;;5.09;100.00
45357;BME280;31092;51.924;21.448;2022-11-15T03:29:56;100442.50;;;4.49;100.00
45357;BME280;31092;51.924;21.448;2022-11-15T03:32:26;100493.31;;;4.82;100.00
45357;BME280;31092;51.924;21.448;2022-11-15T03:34:58;100535.50;;;5.10;100.00
45357;BME280;31092;51.924;21.448;2022-11-15T03:37:34;100505.31;;;4.98;100.00
45357;BME280;31092;51.924;21.448;2022-11-15T03:40:02;100514.53;;;5.06;100.00
45357;BME280;31092;51.924;21.448;2022-11-15T03:42:35;100415.00;;;4.49;100.00
45357;BME280;31092;51.924;21.448;2022-11-15T03:45:13;100419.97;;;4.53;100.00
45357;BME280;31092;51.924;21.448;2022-11-15T03:47:54;100427.09;;;4.64;100.00
45357;BME280;31092;51.924;21.448;2022-11-15T03:50:24;100421.53;;;4.56;100.00
45357;BME280;31092;51.924;21.448;2022-11-15T03:52:54;100419.47;;;4.60;100.00
45357;BME280;31092;51.924;21.448;2022-11-15T03:55:20;100469.16;;;4.83;100.00
45357;BME280;31092;51.924;21.448;2022-11-15T03:57:53;100474.84;;;4.90;100.00
45357;BME280;31092;51.924;21.448;2022-11-15T04:00:20;100499.69;;;5.01;100.00
45357;BME280;31092;51.924;21.448;2022-11-15T04:02:45;100463.56;;;4.86;100.00
45357;BME280;31092;51.924;21.448;2022-11-15T04:05:12;100479.81;;;4.94;100.00
45357;BME280;31092;51.924;21.448;2022-11-15T04:07:37;100489.75;;;5.03;100.00
45357;BME280;31092;51.924;21.448;2022-11-15T04:10:03;100420.44;;;4.70;100.00
45357;BME280;31092;51.924;21.448;2022-11-15T04:12:33;100437.28;;;4.82;100.00
45357;BME280;31092;51.924;21.448;2022-11-15T04:15:01;100349.91;;;4.29;100.00
45357;BME280;31092;51.924;21.448;2022-11-15T04:17:46;100367.72;;;4.40;100.00
45357;BME280;31092;51.924;21.448;2022-11-15T04:20:17;100367.13;;;4.36;100.00
45357;BME280;31092;51.924;21.448;2022-11-15T04:23:04;100373.28;;;4.48;100.00
45357;BME280;31092;51.924;21.448;2022-11-15T04:25:53;100390.00;;;4.50;100.00
45357;BME280;31092;51.924;21.448;2022-11-15T04:28:19;100371.72;;;4.45;100.00
45357;BME280;31092;51.924;21.448;2022-11-15T04:30:44;100389.78;;;4.53;100.00
45357;BME280;31092;51.924;21.448;2022-11-15T04:33:10;100437.72;;;4.87;100.00
45357;BME280;31092;51.924;21.448;2022-11-15T04:35:35;100359.34;;;4.33;100.00
45357;BME280;31092;51.924;21.448;2022-11-15T04:38:06;100441.25;;;4.87;100.00
45357;BME280;31092;51.924;21.448;2022-11-15T04:40:31;100453.88;;;4.85;100.00
45357;BME280;31092;51.924;21.448;2022-11-15T04:42:57;100395.56;;;4.58;100.00
45357;BME280;31092;51.924;21.448;2022-11-15T04:45:22;100422.50;;;4.66;100.00
45357;BME280;31092;51.924;21.448;2022-11-15T04:47:48;100461.16;;;4.83;100.00
45357;BME280;31092;51.924;21.448;2022-11-15T04:50:15;100402.13;;;4.54;100.00
45357;BME280;31092;51.924;21.448;2022-11-15T04:52:41;100350.38;;;4.23;100.00
45357;BME280;31092;51.924;21.448;2022-11-15T04:55:09;100327.25;;;4.12;100.00
45357;BME280;31092;51.924;21.448;2022-11-15T04:57:34;100377.53;;;4.39;100.00
45357;BME280;31092;51.924;21.448;2022-11-15T05:00:00;100370.63;;;4.37;100.00
45357;BME280;31092;51.924;21.448;2022-11-15T05:02:26;100332.47;;;4.14;100.00
45357;BME280;31092;51.924;21.448;2022-11-15T05:05:11;100344.34;;;4.21;100.00
45357;BME280;31092;51.924;21.448;2022-11-15T05:07:37;100378.53;;;4.38;100.00
45357;BME280;31092;51.924;21.448;2022-11-15T05:10:02;100320.97;;;4.13;100.00
45357;BME280;31092;51.924;21.448;2022-11-15T05:12:28;100368.31;;;4.43;100.00
45357;BME280;31092;51.924;21.448;2022-11-15T05:14:53;100393.75;;;4.59;100.00
45357;BME280;31092;51.924;21.448;2022-11-15T05:17:19;100429.97;;;4.84;100.00
45357;BME280;31092;51.924;21.448;2022-11-15T05:19:44;100425.16;;;4.77;100.00
45357;BME280;31092;51.924;21.448;2022-11-15T05:22:10;100311.25;;;4.12;100.00
45357;BME280;31092;51.924;21.448;2022-11-15T05:24:35;100372.44;;;4.47;100.00
45357;BME280;31092;51.924;21.448;2022-11-15T05:27:00;100407.44;;;4.65;100.00
45357;BME280;31092;51.924;21.448;2022-11-15T05:29:26;100334.41;;;4.23;100.00
45357;BME280;31092;51.924;21.448;2022-11-15T05:31:51;100413.53;;;4.67;100.00
45357;BME280;31092;51.924;21.448;2022-11-15T05:34:17;100327.50;;;4.20;100.00
45357;BME280;31092;51.924;21.448;2022-11-15T05:36:43;100388.78;;;4.54;100.00
45357;BME280;31092;51.924;21.448;2022-11-15T05:39:12;100361.53;;;4.39;100.00
45357;BME280;31092;51.924;21.448;2022-11-15T05:41:44;100324.00;;;4.20;100.00
45357;BME280;31092;51.924;21.448;2022-11-15T05:44:14;100309.94;;;4.06;100.00
45357;BME280;31092;51.924;21.448;2022-11-15T05:46:42;100319.84;;;4.16;100.00
45357;BME280;31092;51.924;21.448;2022-11-15T05:49:11;100301.22;;;4.04;100.00
45357;BME280;31092;51.924;21.448;2022-11-15T05:51:39;100292.00;;;3.97;100.00
45357;BME280;31092;51.924;21.448;2022-11-15T05:54:05;100380.09;;;4.52;100.00
45357;BME280;31092;51.924;21.448;2022-11-15T05:56:30;100333.69;;;4.21;100.00
45357;BME280;31092;51.924;21.448;2022-11-15T05:58:57;100374.63;;;4.42;100.00
45357;BME280;31092;51.924;21.448;2022-11-15T06:01:25;100412.06;;;4.63;100.00
45357;BME280;31092;51.924;21.448;2022-11-15T06:03:51;100334.16;;;4.15;100.00
45357;BME280;31092;51.924;21.448;2022-11-15T06:06:17;100366.50;;;4.32;100.00
45357;BME280;31092;51.924;21.448;2022-11-15T06:08:42;100405.53;;;4.56;100.00
45357;BME280;31092;51.924;21.448;2022-11-15T06:11:08;100357.53;;;4.22;100.00
45357;BME280;31092;51.924;21.448;2022-11-15T06:13:34;100343.13;;;4.25;100.00
45357;BME280;31092;51.924;21.448;2022-11-15T06:16:00;100413.63;;;4.66;100.00
45357;BME280;31092;51.924;21.448;2022-11-15T06:18:25;100414.50;;;4.66;100.00
45357;BME280;31092;51.924;21.448;2022-11-15T06:20:51;100364.44;;;4.36;100.00
45357;BME280;31092;51.924;21.448;2022-11-15T06:23:17;100410.00;;;4.67;100.00
45357;BME280;31092;51.924;21.448;2022-11-15T06:25:42;100328.69;;;4.16;100.00
45357;BME280;31092;51.924;21.448;2022-11-15T06:28:08;100322.03;;;4.22;100.00
45357;BME280;31092;51.924;21.448;2022-11-15T06:30:33;100439.78;;;4.94;100.00
45357;BME280;31092;51.924;21.448;2022-11-15T06:33:04;100340.19;;;4.39;100.00
45357;BME280;31092;51.924;21.448;2022-11-15T06:35:32;100343.59;;;4.41;100.00
45357;BME280;31092;51.924;21.448;2022-11-15T06:38:09;100412.41;;;4.81;100.00
45357;BME280;31092;51.924;21.448;2022-11-15T06:40:36;100338.13;;;4.43;100.00
45357;BME280;31092;51.924;21.448;2022-11-15T06:43:03;100338.63;;;4.37;100.00
45357;BME280;31092;51.924;21.448;2022-11-15T06:45:29;100335.00;;;4.38;100.00
45357;BME280;31092;51.924;21.448;2022-11-15T06:47:54;100329.69;;;4.38;100.00
45357;BME280;31092;51.924;21.448;2022-11-15T06:50:20;100429.97;;;4.95;100.00
45357;BME280;31092;51.924;21.448;2022-11-15T06:52:45;100313.44;;;4.29;100.00
45357;BME280;31092;51.924;21.448;2022-11-15T06:55:11;100416.38;;;4.87;100.00
45357;BME280;31092;51.924;21.448;2022-11-15T06:57:36;100383.94;;;4.70;100.00
45357;BME280;31092;51.924;21.448;2022-11-15T07:00:06;100310.16;;;4.26;100.00
45357;BME280;31092;51.924;21.448;2022-11-15T07:02:31;100433.09;;;5.00;100.00
45357;BME280;31092;51.924;21.448;2022-11-15T07:04:57;100362.97;;;4.54;100.00
45357;BME280;31092;51.924;21.448;2022-11-15T07:07:22;100427.91;;;4.87;100.00
45357;BME280;31092;51.924;21.448;2022-11-15T07:09:48;100443.78;;;5.00;100.00
45357;BME280;31092;51.924;21.448;2022-11-15T07:12:13;100390.94;;;4.71;100.00
45357;BME280;31092;51.924;21.448;2022-11-15T07:14:39;100439.41;;;4.99;100.00
45357;BME280;31092;51.924;21.448;2022-11-15T07:17:04;100337.91;;;4.46;100.00
45357;BME280;31092;51.924;21.448;2022-11-15T07:19:30;100382.09;;;4.71;100.00
45357;BME280;31092;51.924;21.448;2022-11-15T07:21:56;100429.97;;;4.95;100.00
45357;BME280;31092;51.924;21.448;2022-11-15T07:24:21;100378.63;;;4.59;100.00
45357;BME280;31092;51.924;21.448;2022-11-15T07:26:47;100433.22;;;4.87;100.00
45357;BME280;31092;51.924;21.448;2022-11-15T07:29:12;100331.72;;;4.23;100.00
45357;BME280;31092;51.924;21.448;2022-11-15T07:31:38;100327.97;;;4.25;100.00
45357;BME280;31092;51.924;21.448;2022-11-15T07:34:04;100433.00;;;4.90;100.00
45357;BME280;31092;51.924;21.448;2022-11-15T07:36:29;100421.72;;;4.87;100.00
45357;BME280;31092;51.924;21.448;2022-11-15T07:38:55;100422.09;;;4.82;100.00
45357;BME280;31092;51.924;21.448;2022-11-15T07:41:20;100349.03;;;4.51;100.00
45357;BME280;31092;51.924;21.448;2022-11-15T07:43:46;100387.06;;;4.75;100.00
45357;BME280;31092;51.924;21.448;2022-11-15T07:46:11;100331.94;;;4.53;100.00
45357;BME280;31092;51.924;21.448;2022-11-15T07:48:38;100436.72;;;5.10;100.00
45357;BME280;31092;51.924;21.448;2022-11-15T07:51:05;100350.56;;;4.65;100.00
45357;BME280;31092;51.924;21.448;2022-11-15T07:53:31;100429.09;;;5.06;100.00
45357;BME280;31092;51.924;21.448;2022-11-15T07:55:56;100392.13;;;4.90;100.00
45357;BME280;31092;51.924;21.448;2022-11-15T07:58:22;100362.78;;;4.78;100.00
45357;BME280;31092;51.924;21.448;2022-11-15T08:00:47;100416.66;;;5.16;100.00
45357;BME280;31092;51.924;21.448;2022-11-15T08:03:15;100320.03;;;4.57;100.00
45357;BME280;31092;51.924;21.448;2022-11-15T08:05:42;100303.69;;;4.51;100.00
45357;BME280;31092;51.924;21.448;2022-11-15T08:08:10;100316.13;;;4.62;100.00
45357;BME280;31092;51.924;21.448;2022-11-15T08:10:36;100382.84;;;5.05;100.00
45357;BME280;31092;51.924;21.448;2022-11-15T08:13:03;100403.91;;;5.19;100.00
45357;BME280;31092;51.924;21.448;2022-11-15T08:15:29;100386.59;;;5.14;100.00
45357;BME280;31092;51.924;21.448;2022-11-15T08:18:02;100378.97;;;5.09;100.00
45357;BME280;31092;51.924;21.448;2022-11-15T08:20:29;100393.66;;;5.03;100.00
45357;BME280;31092;51.924;21.448;2022-11-15T08:22:59;100391.56;;;5.07;100.00
45357;BME280;31092;51.924;21.448;2022-11-15T08:25:27;100367.69;;;4.94;100.00
45357;BME280;31092;51.924;21.448;2022-11-15T08:27:54;100351.97;;;4.91;100.00
45357;BME280;31092;51.924;21.448;2022-11-15T08:30:20;100393.94;;;5.21;100.00
45357;BME280;31092;51.924;21.448;2022-11-15T08:32:46;100369.22;;;5.08;100.00
45357;BME280;31092;51.924;21.448;2022-11-15T08:35:12;100294.09;;;4.60;100.00
45357;BME280;31092;51.924;21.448;2022-11-15T08:37:37;100315.34;;;4.82;100.00
45357;BME280;31092;51.924;21.448;2022-11-15T08:40:04;100361.22;;;5.08;100.00
45357;BME280;31092;51.924;21.448;2022-11-15T08:42:30;100374.59;;;5.29;100.00
45357;BME280;31092;51.924;21.448;2022-11-15T09:56:21;100315.25;;;5.67;100.00
45357;BME280;31092;51.924;21.448;2022-11-15T09:59:19;100310.75;;;5.68;100.00
45357;BME280;31092;51.924;21.448;2022-11-15T10:04:47;100206.78;;;5.03;100.00
45357;BME280;31092;51.924;21.448;2022-11-15T10:07:20;100259.91;;;5.48;100.00
45357;BME280;31092;51.924;21.448;2022-11-15T10:12:34;100223.22;;;5.29;100.00
45357;BME280;31092;51.924;21.448;2022-11-15T10:15:06;100256.41;;;5.58;100.00
45357;BME280;31092;51.924;21.448;2022-11-15T10:18:07;100271.41;;;5.70;100.00
45357;BME280;31092;51.924;21.448;2022-11-15T10:20:44;100168.22;;;5.17;100.00
45357;BME280;31092;51.924;21.448;2022-11-15T10:23:14;100264.84;;;5.84;100.00
45357;BME280;31092;51.924;21.448;2022-11-15T10:25:40;100243.00;;;5.79;100.00
45357;BME280;31092;51.924;21.448;2022-11-15T10:30:52;100194.28;;;5.56;100.00
45357;BME280;31092;51.924;21.448;2022-11-15T10:38:51;100255.31;;;5.91;100.00
45357;BME280;31092;51.924;21.448;2022-11-15T10:41:28;100253.47;;;5.91;100.00
45357;BME280;31092;51.924;21.448;2022-11-15T10:44:19;100253.50;;;6.01;100.00
45357;BME280;31092;51.924;21.448;2022-11-15T10:47:04;100223.50;;;5.88;100.00
45357;BME280;31092;51.924;21.448;2022-11-15T10:49:32;100158.97;;;5.52;100.00
45357;BME280;31092;51.924;21.448;2022-11-15T10:55:20;100156.56;;;5.49;100.00
45357;BME280;31092;51.924;21.448;2022-11-15T10:57:59;100231.28;;;6.00;100.00
45357;BME280;31092;51.924;21.448;2022-11-15T11:00:36;100235.53;;;6.03;100.00
45357;BME280;31092;51.924;21.448;2022-11-15T11:03:08;100151.38;;;5.57;100.00
45357;BME280;31092;51.924;21.448;2022-11-15T11:05:45;100150.00;;;5.63;100.00
45357;BME280;31092;51.924;21.448;2022-11-15T11:10:37;100237.88;;;5.96;100.00
45357;BME280;31092;51.924;21.448;2022-11-15T11:13:25;100169.97;;;5.59;100.00
45357;BME280;31092;51.924;21.448;2022-11-15T11:16:18;100160.66;;;5.53;100.00
45357;BME280;31092;51.924;21.448;2022-11-15T11:21:53;100196.94;;;5.65;100.00
45357;BME280;31092;51.924;21.448;2022-11-15T11:24:44;100219.44;;;5.93;100.00
45357;BME280;31092;51.924;21.448;2022-11-15T11:27:21;100220.28;;;5.94;100.00
45357;BME280;31092;51.924;21.448;2022-11-15T11:37:50;100214.66;;;5.97;100.00
45357;BME280;31092;51.924;21.448;2022-11-15T11:40:37;100196.41;;;6.02;100.00
45357;BME280;31092;51.924;21.448;2022-11-15T11:51:24;100097.91;;;5.38;100.00
45357;BME280;31092;51.924;21.448;2022-11-15T11:56:37;100158.75;;;5.74;100.00
45357;BME280;31092;51.924;21.448;2022-11-15T11:59:12;100094.13;;;5.50;100.00
45357;BME280;31092;51.924;21.448;2022-11-15T12:01:43;100163.06;;;6.06;100.00
45357;BME280;31092;51.924;21.448;2022-11-15T12:04:18;100185.16;;;6.18;100.00
45357;BME280;31092;51.924;21.448;2022-11-15T12:06:52;100168.28;;;6.17;100.00
45357;BME280;31092;51.924;21.448;2022-11-15T12:10:05;100177.00;;;6.19;100.00
45357;BME280;31092;51.924;21.448;2022-11-15T12:12:43;100148.56;;;6.09;100.00
45357;BME280;31092;51.924;21.448;2022-11-15T12:15:23;100097.53;;;5.71;100.00
45357;BME280;31092;51.924;21.448;2022-11-15T12:17:50;100077.00;;;5.62;100.00
45357;BME280;31092;51.924;21.448;2022-11-15T12:20:22;100059.41;;;5.50;100.00
45357;BME280;31092;51.924;21.448;2022-11-15T12:22:55;100162.50;;;6.12;100.00
45357;BME280;31092;51.924;21.448;2022-11-15T12:25:33;100144.88;;;6.00;100.00
45357;BME280;31092;51.924;21.448;2022-11-15T12:30:47;100034.06;;;5.35;100.00
45357;BME280;31092;51.924;21.448;2022-11-15T12:36:10;100043.63;;;5.47;100.00
45357;BME280;31092;51.924;21.448;2022-11-15T12:41:33;100072.22;;;5.75;100.00
45357;BME280;31092;51.924;21.448;2022-11-15T12:44:00;100064.47;;;5.72;100.00
45357;BME280;31092;51.924;21.448;2022-11-15T12:59:56;100117.84;;;5.84;100.00
45357;BME280;31092;51.924;21.448;2022-11-15T13:10:37;100126.59;;;5.45;100.00
45357;BME280;31092;51.924;21.448;2022-11-15T13:13:07;100069.44;;;5.17;100.00
45357;BME280;31092;51.924;21.448;2022-11-15T13:15:36;100035.63;;;4.97;100.00
45357;BME280;31092;51.924;21.448;2022-11-15T13:18:43;100117.91;;;5.53;100.00
45357;BME280;31092;51.924;21.448;2022-11-15T13:21:22;100023.97;;;4.98;100.00
45357;BME280;31092;51.924;21.448;2022-11-15T13:24:13;100074.09;;;5.25;100.00
45357;BME280;31092;51.924;21.448;2022-11-15T13:26:40;100080.28;;;5.25;100.00
45357;BME280;31092;51.924;21.448;2022-11-15T13:29:15;100093.63;;;5.25;100.00
45357;BME280;31092;51.924;21.448;2022-11-15T13:31:42;100082.31;;;5.12;100.00
45357;BME280;31092;51.924;21.448;2022-11-15T13:34:22;100042.75;;;4.87;100.00
45357;BME280;31092;51.924;21.448;2022-11-15T13:36:49;100084.47;;;5.18;100.00
45357;BME280;31092;51.924;21.448;2022-11-15T13:39:33;100098.59;;;5.40;100.00
45357;BME280;31092;51.924;21.448;2022-11-15T13:42:01;100091.84;;;5.36;100.00
45357;BME280;31092;51.924;21.448;2022-11-15T13:44:30;100073.41;;;5.23;100.00
45357;BME280;31092;51.924;21.448;2022-11-15T13:47:18;100091.25;;;5.32;100.00
45357;BME280;31092;51.924;21.448;2022-11-15T13:49:44;99970.06;;;4.64;100.00
45357;BME280;31092;51.924;21.448;2022-11-15T13:52:16;100065.94;;;5.17;100.00
45357;BME280;31092;51.924;21.448;2022-11-15T13:54:46;100094.66;;;5.34;100.00
45357;BME280;31092;51.924;21.448;2022-11-15T13:57:22;100073.53;;;5.21;100.00
45357;BME280;31092;51.924;21.448;2022-11-15T14:02:16;100006.66;;;4.83;100.00
45357;BME280;31092;51.924;21.448;2022-11-15T14:07:29;99992.34;;;4.93;100.00
45357;BME280;31092;51.924;21.448;2022-11-15T14:09:55;99892.63;;;4.35;100.00
45357;BME280;31092;51.924;21.448;2022-11-15T14:14:54;100066.84;;;5.46;100.00
45357;BME280;31092;51.924;21.448;2022-11-15T14:19:55;99989.66;;;4.84;100.00
45357;BME280;31092;51.924;21.448;2022-11-15T14:22:23;100044.25;;;5.10;100.00
45357;BME280;31092;51.924;21.448;2022-11-15T14:25:15;100072.44;;;5.34;100.00
45357;BME280;31092;51.924;21.448;2022-11-15T14:27:42;100073.66;;;5.20;100.00
45357;BME280;31092;51.924;21.448;2022-11-15T14:30:17;100085.63;;;5.25;100.00
45357;BME280;31092;51.924;21.448;2022-11-15T14:32:48;99994.97;;;4.74;100.00
45357;BME280;31092;51.924;21.448;2022-11-15T14:35:20;100077.47;;;5.27;100.00
45357;BME280;31092;51.924;21.448;2022-11-15T14:37:46;100073.69;;;5.29;100.00
45357;BME280;31092;51.924;21.448;2022-11-15T14:40:14;99988.81;;;4.83;100.00
45357;BME280;31092;51.924;21.448;2022-11-15T14:42:41;100063.00;;;5.29;100.00
45357;BME280;31092;51.924;21.448;2022-11-15T14:45:16;100072.44;;;5.34;100.00
45357;BME280;31092;51.924;21.448;2022-11-15T14:47:42;100051.47;;;5.29;100.00
45357;BME280;31092;51.924;21.448;2022-11-15T14:50:16;100052.34;;;5.39;100.00
45357;BME280;31092;51.924;21.448;2022-11-15T14:52:42;99956.09;;;4.81;100.00
45357;BME280;31092;51.924;21.448;2022-11-15T14:57:39;100010.56;;;5.28;100.00
45357;BME280;31092;51.924;21.448;2022-11-15T15:00:05;99913.06;;;4.65;100.00
45357;BME280;31092;51.924;21.448;2022-11-15T15:02:31;100032.78;;;5.29;100.00
45357;BME280;31092;51.924;21.448;2022-11-15T15:04:56;99956.78;;;4.83;100.00
45357;BME280;31092;51.924;21.448;2022-11-15T15:07:26;100014.34;;;5.16;100.00
45357;BME280;31092;51.924;21.448;2022-11-15T15:09:52;100037.81;;;5.22;100.00
45357;BME280;31092;51.924;21.448;2022-11-15T15:12:22;99959.84;;;4.69;100.00
45357;BME280;31092;51.924;21.448;2022-11-15T15:14:49;99961.13;;;4.74;100.00
45357;BME280;31092;51.924;21.448;2022-11-15T15:17:15;100049.66;;;5.29;100.00
45357;BME280;31092;51.924;21.448;2022-11-15T15:19:42;100040.94;;;5.27;100.00
45357;BME280;31092;51.924;21.448;2022-11-15T15:22:16;99951.53;;;4.62;100.00
45357;BME280;31092;51.924;21.448;2022-11-15T15:24:43;100021.88;;;5.01;100.00
45357;BME280;31092;51.924;21.448;2022-11-15T15:27:09;100023.59;;;5.02;100.00
45357;BME280;31092;51.924;21.448;2022-11-15T15:29:34;99961.81;;;4.67;100.00
45357;BME280;31092;51.924;21.448;2022-11-15T15:32:00;100024.16;;;5.16;100.00
45357;BME280;31092;51.924;21.448;2022-11-15T15:34:25;99934.25;;;4.56;100.00
45357;BME280;31092;51.924;21.448;2022-11-15T15:37:18;100032.84;;;5.08;100.00
45357;BME280;31092;51.924;21.448;2022-11-15T15:39:45;99985.31;;;4.83;100.00
45357;BME280;31092;51.924;21.448;2022-11-15T15:42:10;99928.19;;;4.45;100.00
45357;BME280;31092;51.924;21.448;2022-11-15T15:44:36;99978.38;;;4.70;100.00
45357;BME280;31092;51.924;21.448;2022-11-15T15:47:01;100019.31;;;4.90;100.00
45357;BME280;31092;51.924;21.448;2022-11-15T15:49:27;100022.81;;;4.91;100.00
45357;BME280;31092;51.924;21.448;2022-11-15T15:51:52;99908.13;;;4.20;100.00
45357;BME280;31092;51.924;21.448;2022-11-15T15:54:18;100050.59;;;5.09;100.00